Weather reports worldwide

Advertisment
Formigueres, France (7737): temperature & dewpoint: 10.12.2019 13:00:00 - 16.12.2019 13:00:00 (CET)Formigueres, France (7737): wind speed & gusts: 10.12.2019 13:00:00 - 16.12.2019 13:00:00 (CET)Formigueres, France (7737): wind direction: 10.12.2019 13:00:00 - 16.12.2019 13:00:00 (CET)Formigueres, France (7737): precipitation: 10.12.2019 13:00:00 - 16.12.2019 13:00:00 (CET)
Date & Time tt [°C] td [°C] ff [km/h] ff [kn] fx [km/h] fx [kn] dd rr [mm]
16.12.2019 13:00:00 - - - - - - - -
16.12.2019 12:00:00 10,8 -2,6 26 14 65 35 SSW 0,0
16.12.2019 11:00:00 11,1 -4,6 28 15 55 30 SSW 0,0
16.12.2019 10:00:00 10,0 -3,7 24 13 54 29 SSW 0,0
16.12.2019 09:00:00 8,3 -1,5 29 16 61 33 SSW 0,0
16.12.2019 08:00:00 7,9 -1,4 28 15 59 32 SSW 0,0
16.12.2019 07:00:00 7,8 -0,4 16 9 48 26 S -
16.12.2019 06:00:00 7,5 0,0 22 12 57 31 S 0,0
16.12.2019 05:00:00 6,7 -1,0 16 9 57 31 S 0,0
16.12.2019 04:00:00 6,2 -1,5 16 9 37 20 S 0,0
16.12.2019 03:00:00 5,5 -2,8 18 10 34 18 SSE 0,0
16.12.2019 02:00:00 5,9 -3,5 16 9 28 15 SSE 0,0
16.12.2019 01:00:00 6,4 -5,0 13 7 24 13 SSE -
16.12.2019 00:00:00 5,3 -8,6 11 6 22 12 S 0,0
15.12.2019 23:00:00 5,6 -9,4 15 8 24 13 SSE 0,0
15.12.2019 22:00:00 3,5 -8,5 8 4 15 8 S 0,0
15.12.2019 21:00:00 3,5 -8,5 8 4 15 8 WSW 0,0
15.12.2019 20:00:00 3,3 -7,5 8 4 16 9 WSW 0,0
15.12.2019 19:00:00 3,7 -7,7 13 7 21 11 WSW -
15.12.2019 18:00:00 4,5 -5,9 4 2 11 6 WNW 0,0
15.12.2019 17:00:00 7,4 -8,3 8 4 35 19 SSW 0,0
15.12.2019 16:00:00 10,9 -8,9 24 13 46 25 S 0,0
15.12.2019 15:00:00 11,6 -8,3 28 15 50 27 S 0,0
15.12.2019 14:00:00 11,8 -8,7 22 12 44 24 S 0,0
15.12.2019 13:00:00 12,0 -9,7 22 12 48 26 S -
15.12.2019 12:00:00 11,7 -7,7 22 12 39 21 S 0,0
15.12.2019 11:00:00 6,9 -1,3 4 2 8 4 NE 0,0
15.12.2019 10:00:00 3,8 -2,0 0 0 22 12 N 0,0
15.12.2019 09:00:00 -0,5 -3,4 4 2 22 12 W 0,0
15.12.2019 08:00:00 0,5 -3,2 13 7 26 14 WSW 0,0
15.12.2019 07:00:00 0,7 -3,2 13 7 24 13 W -
15.12.2019 06:00:00 0,5 -2,9 8 4 22 12 W 0,0
15.12.2019 05:00:00 0,7 -2,9 8 4 26 14 WSW 0,0
15.12.2019 04:00:00 0,8 -2,4 15 8 28 15 WSW 0,0
15.12.2019 03:00:00 0,7 -2,2 18 10 26 14 WSW 0,0
15.12.2019 02:00:00 0,9 -1,8 5 3 16 9 W 0,0
15.12.2019 01:00:00 1,5 -1,7 11 6 22 12 W -
15.12.2019 00:00:00 3,6 -0,8 11 6 34 18 W 0,0
14.12.2019 23:00:00 6,0 -0,1 22 12 44 24 SSE 0,0
14.12.2019 22:00:00 5,9 0,6 8 4 37 20 S 0,0
14.12.2019 21:00:00 5,6 0,8 22 12 29 16 SE 0,0
14.12.2019 20:00:00 6,4 0,5 13 7 26 14 SSE 0,0
14.12.2019 19:00:00 3,0 2,1 4 2 18 10 NNW -
14.12.2019 18:00:00 3,7 1,4 11 6 21 11 WSW 0,0
14.12.2019 17:00:00 6,2 3,4 2 1 15 8 W 0,0
14.12.2019 16:00:00 7,6 4,7 9 5 24 13 NNE 0,0
14.12.2019 15:00:00 10,8 2,1 11 6 26 14 N 0,0
14.12.2019 14:00:00 11,2 1,4 13 7 35 19 N 0,0
14.12.2019 13:00:00 11,9 1,8 11 6 39 21 NNE -
14.12.2019 12:00:00 11,8 3,3 16 9 34 18 NE 0,0
14.12.2019 11:00:00 8,8 2,4 11 6 35 19 NNE 0,0
14.12.2019 10:00:00 7,8 2,3 5 3 37 20 ENE 0,0
14.12.2019 09:00:00 7,5 2,0 11 6 55 30 NE 0,0
14.12.2019 08:00:00 7,5 2,0 16 9 70 38 NE 0,0
14.12.2019 07:00:00 7,6 1,9 21 11 96 52 NE -
14.12.2019 06:00:00 7,5 2,2 16 9 67 36 NE 0,0
14.12.2019 05:00:00 6,9 2,8 11 6 81 44 ENE 0,0
14.12.2019 04:00:00 7,5 2,6 29 16 81 44 W 0,0
14.12.2019 03:00:00 7,7 1,7 34 18 74 40 W 0,0
14.12.2019 02:00:00 6,5 0,2 28 15 78 42 W 0,0
14.12.2019 01:00:00 6,6 0,3 37 20 78 42 W -
14.12.2019 00:00:00 6,6 0,5 42 23 113 61 W 0,0
13.12.2019 23:00:00 6,4 0,7 41 22 98 53 W 0,8
13.12.2019 22:00:00 6,2 3,4 13 7 55 30 WNW 3,0
13.12.2019 21:00:00 6,7 3,7 9 5 70 38 NW 0,8
13.12.2019 20:00:00 5,0 3,2 4 2 44 24 WNW 3,0
13.12.2019 19:00:00 4,9 2,9 5 3 48 26 WNW -
13.12.2019 18:00:00 5,9 2,5 15 8 65 35 NW 3,0
13.12.2019 17:00:00 4,9 2,4 9 5 76 41 WNW 2,0
13.12.2019 16:00:00 4,9 2,1 16 9 93 50 NNW 3,0
13.12.2019 15:00:00 5,7 2,0 26 14 67 36 N 3,0
13.12.2019 14:00:00 5,7 2,5 15 8 57 31 N 2,0
13.12.2019 13:00:00 5,3 2,5 18 10 87 47 N -
13.12.2019 12:00:00 6,4 3,0 26 14 68 37 NW 3,0
13.12.2019 11:00:00 5,8 3,1 13 7 76 41 NW 2,0
13.12.2019 10:00:00 6,2 3,0 22 12 91 49 WNW 2,0
13.12.2019 09:00:00 6,4 3,2 37 20 94 51 NW 2,0
13.12.2019 08:00:00 6,2 3,0 22 12 78 42 NW 2,0
13.12.2019 07:00:00 5,1 2,6 15 8 50 27 WNW -
13.12.2019 06:00:00 0,9 0,5 8 4 34 18 S 2,0
13.12.2019 05:00:00 0,6 0,2 8 4 28 15 WSW 2,0
13.12.2019 04:00:00 0,4 0,1 9 5 31 17 SW 4,0
13.12.2019 03:00:00 0,2 -0,1 11 6 26 14 SW 5,0
13.12.2019 02:00:00 -0,1 -0,4 16 9 29 16 SSW 3,0
13.12.2019 01:00:00 -0,1 -0,4 16 9 37 20 S -
13.12.2019 00:00:00 -0,2 -0,5 16 9 37 20 SSW 3,0
12.12.2019 23:00:00 -0,4 -0,7 22 12 42 23 S 3,0
12.12.2019 22:00:00 -0,5 -0,9 26 14 42 23 S 4,0
12.12.2019 21:00:00 -0,4 -1,0 22 12 41 22 S 2,0
12.12.2019 20:00:00 -0,3 -0,9 15 8 29 16 S 2,0
12.12.2019 19:00:00 -0,1 -0,7 9 5 34 18 S -
12.12.2019 18:00:00 0,5 -1,7 22 12 50 27 S 0,0
12.12.2019 17:00:00 0,6 -2,3 24 13 46 25 S 0,0
12.12.2019 16:00:00 1,4 -2,0 21 11 35 19 S 0,0
12.12.2019 15:00:00 2,6 -1,8 4 2 13 7 S 0,0
12.12.2019 14:00:00 2,8 -1,6 4 2 9 5 NNE 0,0
12.12.2019 13:00:00 2,4 -2,0 4 2 9 5 NE -
12.12.2019 12:00:00 1,7 -1,9 2 1 13 7 S 0,0
12.12.2019 11:00:00 0,8 -1,3 0 0 5 3 N 0,0
12.12.2019 10:00:00 -0,2 -1,6 4 2 11 6 S 0,2
12.12.2019 09:00:00 -0,6 -1,7 8 4 18 10 ESE 0,2
12.12.2019 08:00:00 0,3 -2,7 8 4 29 16 NE 0,0
12.12.2019 07:00:00 0,1 -3,5 13 7 41 22 N -
12.12.2019 06:00:00 -0,1 -3,3 11 6 41 22 NNE 0,0
12.12.2019 05:00:00 0,9 -4,2 13 7 41 22 N 0,0
12.12.2019 04:00:00 -0,1 -3,1 18 10 65 35 NNE 0,0
12.12.2019 03:00:00 0,8 -4,2 22 12 74 40 N 0,0
12.12.2019 02:00:00 0,6 -3,7 22 12 102 55 N 0,0
12.12.2019 01:00:00 0,3 -4,2 31 17 96 52 N -
12.12.2019 00:00:00 -0,1 -4,4 21 11 65 35 N 0,0
11.12.2019 23:00:00 -0,3 -3,5 18 10 61 33 N 0,2
11.12.2019 22:00:00 0,1 -4,4 13 7 52 28 N 0,0
11.12.2019 21:00:00 0,6 -7,0 16 9 46 25 W 0,0
11.12.2019 20:00:00 -0,2 -5,6 9 5 46 25 WNW 0,0
11.12.2019 19:00:00 -1,5 -5,0 16 9 70 38 N -
11.12.2019 18:00:00 -1,0 -6,2 22 12 72 39 NNE 0,0
11.12.2019 17:00:00 -0,7 -1,8 31 17 59 32 NNE 0,2
11.12.2019 16:00:00 0,4 -0,7 26 14 48 26 NNE 0,2
11.12.2019 15:00:00 1,3 -0,5 26 14 44 24 NNE 0,0
11.12.2019 14:00:00 3,3 -2,5 9 5 35 19 NNW 0,0
11.12.2019 13:00:00 3,0 -4,2 22 12 37 20 N -
11.12.2019 12:00:00 5,0 -5,4 16 9 28 15 N 0,0
11.12.2019 11:00:00 4,1 -3,9 2 1 9 5 SSW 0,0
11.12.2019 10:00:00 -0,3 -4,2 4 2 22 12 NW 0,0
11.12.2019 09:00:00 -0,1 -4,9 11 6 18 10 WSW 0,0
11.12.2019 08:00:00 -1,7 -4,9 4 2 22 12 W 0,0
11.12.2019 07:00:00 -1,5 -5,4 9 5 18 10 SSW -
11.12.2019 06:00:00 -1,8 -5,6 8 4 21 11 S 0,0
11.12.2019 05:00:00 -3,2 -6,2 5 3 21 11 WSW 0,0
11.12.2019 04:00:00 -3,3 -7,5 5 3 18 10 WSW 0,0
11.12.2019 03:00:00 -1,9 -6,5 9 5 21 11 WSW 0,0
11.12.2019 02:00:00 -2,2 -7,1 11 6 24 13 WSW 0,0
11.12.2019 01:00:00 -3,4 -6,0 5 3 18 10 WSW -
11.12.2019 00:00:00 -3,4 -6,9 4 2 24 13 W 0,0
10.12.2019 23:00:00 -2,3 -6,3 11 6 18 10 WSW 0,0
10.12.2019 22:00:00 -2,8 -5,8 8 4 21 11 WNW 0,0
10.12.2019 21:00:00 -1,9 -6,5 13 7 21 11 WSW 0,0
10.12.2019 20:00:00 -2,2 -6,2 5 3 22 12 WNW 0,0
10.12.2019 19:00:00 -2,9 -5,9 8 4 18 10 WSW -
10.12.2019 18:00:00 -0,9 -5,1 9 5 26 14 W 0,0
10.12.2019 17:00:00 0,6 -4,2 16 9 26 14 W 0,0
10.12.2019 16:00:00 6,3 -6,7 9 5 18 10 NNW 0,0
10.12.2019 15:00:00 5,4 -6,2 5 3 11 6 WNW 0,0
10.12.2019 14:00:00 5,7 -5,9 4 2 11 6 W 0,0
10.12.2019 13:00:00 4,5 -4,8 4 2 21 11 NNE -

tt = temperature
td = dewpoint
ff = wind speed
fx = gusts
dd = wind direction
rr = precipitation

Next stations